SAS58T EKCH-LDDU
Flight info
| Callsign | SAS58T |
|---|---|
| Flight time | N/A |
| Altitude | 37000 |
| Route | SIMEG Z493 XELOL Z491 VAVUN L996 DENKO L616 DESEN DCT ESETO DCT LALES DCT SOMID DCT VAMOG DCT NIKAB DCT EDALA DCT VRANA DCT NERRA |
| Aircraft | A320/M-SDE3FGHIRWY/LB1 |
Departure
| Time | N/A |
|---|---|
| Airport | Copenhagen Kastrup Airport (EKCH) |
Arrival
| Time | 2026-04-30 19:27 |
|---|---|
| Airport | Dubrovnik Ruđer Bošković Airport (LDDU) |
| Time | Latitude | Longitude | Altitude | Speed | Heading |
|---|---|---|---|---|---|
| 2026-04-30 17:39 | 55.00569 | 13.99090 | 25766 ft | 434 kts | 126° |
| 2026-04-30 17:41 | 54.82272 | 14.28060 | 28645 ft | 462 kts | 140° |
| 2026-04-30 17:42 | 54.76971 | 14.34475 | 29300 ft | 467 kts | 140° |
| 2026-04-30 17:42 | 54.68800 | 14.43821 | 30369 ft | 473 kts | 142° |
| 2026-04-30 17:43 | 54.63269 | 14.49932 | 31234 ft | 469 kts | 142° |
| 2026-04-30 17:44 | 54.55109 | 14.59050 | 32588 ft | 463 kts | 141° |
| 2026-04-30 17:44 | 54.47056 | 14.68088 | 33938 ft | 459 kts | 140° |
| 2026-04-30 17:46 | 54.33718 | 14.82912 | 35683 ft | 456 kts | 141° |
| 2026-04-30 17:47 | 54.22334 | 14.92617 | 36785 ft | 467 kts | 156° |
| 2026-04-30 17:48 | 54.09963 | 14.99660 | 37431 ft | 475 kts | 156° |
| 2026-04-30 17:48 | 54.00498 | 15.04928 | 37432 ft | 478 kts | 157° |
| 2026-04-30 17:50 | 53.75121 | 15.18602 | 37444 ft | 479 kts | 157° |
| 2026-04-30 17:52 | 53.56094 | 15.28767 | 37445 ft | 479 kts | 157° |
| 2026-04-30 17:54 | 53.28671 | 15.47788 | 37437 ft | 474 kts | 149° |
| 2026-04-30 17:56 | 53.04743 | 15.65953 | 37419 ft | 473 kts | 149° |
| 2026-04-30 17:58 | 52.86740 | 15.79472 | 37428 ft | 474 kts | 149° |
| 2026-04-30 18:00 | 52.62515 | 15.96640 | 37417 ft | 475 kts | 150° |
| 2026-04-30 18:01 | 52.47333 | 16.07196 | 37435 ft | 476 kts | 150° |
| 2026-04-30 18:02 | 52.30066 | 16.19073 | 37412 ft | 475 kts | 150° |
| 2026-04-30 18:04 | 52.11732 | 16.31592 | 37427 ft | 477 kts | 150° |
| 2026-04-30 18:06 | 51.87322 | 16.48086 | 37408 ft | 476 kts | 150° |
| 2026-04-30 18:08 | 51.65824 | 16.62417 | 37429 ft | 478 kts | 150° |
| 2026-04-30 18:10 | 51.41132 | 16.78723 | 37420 ft | 481 kts | 150° |
| 2026-04-30 18:11 | 51.19412 | 16.92895 | 37421 ft | 480 kts | 150° |
| 2026-04-30 18:13 | 51.03979 | 17.02907 | 37427 ft | 481 kts | 150° |
| 2026-04-30 18:14 | 50.88475 | 17.12870 | 37435 ft | 481 kts | 151° |
| 2026-04-30 18:15 | 50.69935 | 17.24707 | 37439 ft | 479 kts | 152° |
| 2026-04-30 18:16 | 50.57572 | 17.32552 | 37427 ft | 479 kts | 152° |
| 2026-04-30 18:17 | 50.51420 | 17.36424 | 37426 ft | 479 kts | 152° |
| 2026-04-30 18:18 | 50.42135 | 17.42273 | 37416 ft | 478 kts | 152° |
| 2026-04-30 18:18 | 50.35951 | 17.46139 | 37413 ft | 479 kts | 152° |
| 2026-04-30 18:19 | 50.29755 | 17.49986 | 37418 ft | 479 kts | 153° |
| 2026-04-30 18:19 | 50.23209 | 17.52459 | 37415 ft | 490 kts | 168° |
| 2026-04-30 18:20 | 50.16436 | 17.53776 | 37417 ft | 490 kts | 168° |
| 2026-04-30 18:20 | 50.09667 | 17.55095 | 37416 ft | 490 kts | 168° |
| 2026-04-30 18:21 | 50.02895 | 17.56432 | 37417 ft | 490 kts | 168° |
| 2026-04-30 18:21 | 49.96172 | 17.57748 | 37411 ft | 489 kts | 169° |
| 2026-04-30 18:22 | 49.89426 | 17.59057 | 37415 ft | 488 kts | 169° |
| 2026-04-30 18:22 | 49.79311 | 17.61028 | 37411 ft | 488 kts | 169° |
| 2026-04-30 18:23 | 49.72562 | 17.62339 | 37414 ft | 488 kts | 169° |
| 2026-04-30 18:23 | 49.65819 | 17.63646 | 37413 ft | 488 kts | 169° |
| 2026-04-30 18:24 | 49.55701 | 17.65593 | 37410 ft | 488 kts | 169° |
| 2026-04-30 18:25 | 49.48956 | 17.66876 | 37411 ft | 488 kts | 169° |
| 2026-04-30 18:25 | 49.38886 | 17.68815 | 37411 ft | 488 kts | 169° |
| 2026-04-30 18:26 | 49.28779 | 17.70730 | 37414 ft | 487 kts | 169° |
| 2026-04-30 18:27 | 49.18609 | 17.71717 | 37418 ft | 491 kts | 178° |
| 2026-04-30 18:28 | 49.08362 | 17.71461 | 37417 ft | 491 kts | 178° |
| 2026-04-30 18:28 | 48.98142 | 17.71229 | 37407 ft | 491 kts | 178° |
| 2026-04-30 18:29 | 48.84458 | 17.70920 | 37401 ft | 491 kts | 178° |
| 2026-04-30 18:30 | 48.70806 | 17.71246 | 37415 ft | 490 kts | 176° |
| 2026-04-30 18:31 | 48.60583 | 17.71524 | 37404 ft | 489 kts | 177° |
| 2026-04-30 18:32 | 48.50375 | 17.71718 | 37398 ft | 489 kts | 178° |
| 2026-04-30 18:33 | 48.40218 | 17.71122 | 37390 ft | 490 kts | 182° |
| 2026-04-30 18:33 | 48.30030 | 17.70106 | 37391 ft | 488 kts | 181° |
| 2026-04-30 18:34 | 48.19855 | 17.69338 | 37389 ft | 487 kts | 181° |
| 2026-04-30 18:35 | 48.13084 | 17.68858 | 37377 ft | 487 kts | 181° |
| 2026-04-30 18:35 | 48.06326 | 17.68345 | 37382 ft | 486 kts | 181° |
| 2026-04-30 18:36 | 47.96199 | 17.67573 | 37401 ft | 485 kts | 181° |
| 2026-04-30 18:37 | 47.86083 | 17.66822 | 37395 ft | 485 kts | 182° |
| 2026-04-30 18:37 | 47.79350 | 17.66316 | 37384 ft | 484 kts | 182° |
| 2026-04-30 18:38 | 47.72632 | 17.65719 | 37378 ft | 484 kts | 183° |
| 2026-04-30 18:38 | 47.65917 | 17.64992 | 37372 ft | 483 kts | 184° |
| 2026-04-30 18:39 | 47.59260 | 17.64266 | 37375 ft | 483 kts | 183° |
| 2026-04-30 18:39 | 47.52563 | 17.63580 | 37377 ft | 482 kts | 183° |
| 2026-04-30 18:40 | 47.45862 | 17.62910 | 37372 ft | 482 kts | 183° |
| 2026-04-30 18:40 | 47.39170 | 17.62245 | 37371 ft | 482 kts | 183° |
| 2026-04-30 18:41 | 47.32478 | 17.61562 | 37370 ft | 482 kts | 183° |
| 2026-04-30 18:41 | 47.25785 | 17.60891 | 37370 ft | 482 kts | 183° |
| 2026-04-30 18:42 | 47.19094 | 17.60220 | 37400 ft | 482 kts | 184° |
| 2026-04-30 18:42 | 47.09057 | 17.59195 | 37389 ft | 481 kts | 183° |
| 2026-04-30 18:45 | 46.72415 | 17.55589 | 37375 ft | 479 kts | 184° |
| 2026-04-30 18:46 | 46.65768 | 17.54936 | 37374 ft | 479 kts | 184° |
| 2026-04-30 18:46 | 46.59120 | 17.54347 | 37373 ft | 478 kts | 182° |
| 2026-04-30 18:47 | 46.52520 | 17.54169 | 37370 ft | 478 kts | 180° |
| 2026-04-30 18:47 | 46.45868 | 17.54154 | 37370 ft | 477 kts | 180° |
| 2026-04-30 18:48 | 46.39223 | 17.54058 | 37381 ft | 477 kts | 181° |
| 2026-04-30 18:48 | 46.32593 | 17.53886 | 37374 ft | 476 kts | 181° |
| 2026-04-30 18:49 | 46.25970 | 17.53705 | 37370 ft | 476 kts | 181° |
| 2026-04-30 18:49 | 46.19353 | 17.53548 | 37359 ft | 475 kts | 182° |
| 2026-04-30 18:50 | 46.12738 | 17.53400 | 37361 ft | 475 kts | 182° |
| 2026-04-30 18:50 | 46.06118 | 17.53244 | 37362 ft | 475 kts | 182° |
| 2026-04-30 18:51 | 45.99551 | 17.53091 | 37349 ft | 475 kts | 182° |
| 2026-04-30 18:51 | 45.92947 | 17.52940 | 37350 ft | 475 kts | 182° |
| 2026-04-30 18:52 | 45.86333 | 17.52792 | 37351 ft | 475 kts | 182° |
| 2026-04-30 18:52 | 45.79728 | 17.52637 | 37347 ft | 475 kts | 182° |
| 2026-04-30 18:53 | 45.73116 | 17.52481 | 37362 ft | 475 kts | 182° |
| 2026-04-30 18:53 | 45.66509 | 17.52344 | 37356 ft | 475 kts | 182° |
| 2026-04-30 18:54 | 45.59909 | 17.52209 | 37345 ft | 475 kts | 182° |
| 2026-04-30 18:54 | 45.54413 | 17.52080 | 37350 ft | 475 kts | 183° |
| 2026-04-30 18:55 | 45.47809 | 17.51914 | 37345 ft | 475 kts | 183° |
| 2026-04-30 18:55 | 45.37899 | 17.51679 | 37352 ft | 475 kts | 182° |
| 2026-04-30 18:56 | 45.27992 | 17.51464 | 37350 ft | 475 kts | 182° |
| 2026-04-30 18:57 | 45.18079 | 17.51254 | 36837 ft | 474 kts | 183° |
| 2026-04-30 18:57 | 45.14777 | 17.51176 | 36438 ft | 473 kts | 183° |
| 2026-04-30 18:57 | 45.11488 | 17.51099 | 36049 ft | 473 kts | 183° |
| 2026-04-30 18:58 | 45.04917 | 17.50947 | 35292 ft | 471 kts | 183° |
| 2026-04-30 18:58 | 45.01640 | 17.50877 | 34914 ft | 471 kts | 183° |
| 2026-04-30 18:58 | 44.98366 | 17.50807 | 34537 ft | 471 kts | 183° |
| 2026-04-30 18:59 | 44.91814 | 17.50668 | 33700 ft | 471 kts | 183° |
| 2026-04-30 19:00 | 44.82028 | 17.50448 | 32428 ft | 470 kts | 183° |
| 2026-04-30 19:00 | 44.78766 | 17.50373 | 31995 ft | 467 kts | 183° |
| 2026-04-30 19:00 | 44.72322 | 17.50232 | 31185 ft | 460 kts | 183° |
| 2026-04-30 19:01 | 44.65971 | 17.50082 | 30397 ft | 453 kts | 183° |
| 2026-04-30 19:01 | 44.62830 | 17.50013 | 29945 ft | 450 kts | 182° |
| 2026-04-30 19:02 | 44.56612 | 17.49888 | 29279 ft | 444 kts | 183° |
| 2026-04-30 19:02 | 44.50433 | 17.49756 | 28552 ft | 441 kts | 183° |
| 2026-04-30 19:03 | 44.44328 | 17.49613 | 27730 ft | 436 kts | 183° |
| 2026-04-30 19:03 | 44.38329 | 17.49481 | 26943 ft | 431 kts | 183° |
| 2026-04-30 19:04 | 44.32355 | 17.49355 | 26177 ft | 427 kts | 183° |
| 2026-04-30 19:04 | 44.26444 | 17.49224 | 25425 ft | 423 kts | 183° |
| 2026-04-30 19:05 | 44.20567 | 17.49181 | 24675 ft | 420 kts | 180° |
| 2026-04-30 19:05 | 44.14758 | 17.49690 | 23960 ft | 416 kts | 176° |
| 2026-04-30 19:06 | 44.09010 | 17.50418 | 23133 ft | 412 kts | 176° |
| 2026-04-30 19:06 | 44.06198 | 17.50754 | 22725 ft | 410 kts | 177° |
| 2026-04-30 19:06 | 44.00537 | 17.51346 | 21901 ft | 408 kts | 178° |
| 2026-04-30 19:07 | 43.94883 | 17.51886 | 21275 ft | 405 kts | 178° |
| 2026-04-30 19:07 | 43.92078 | 17.52149 | 21274 ft | 406 kts | 178° |
| 2026-04-30 19:08 | 43.86459 | 17.52685 | 20697 ft | 401 kts | 177° |
| 2026-04-30 19:08 | 43.80925 | 17.53224 | 20044 ft | 398 kts | 178° |
| 2026-04-30 19:08 | 43.78160 | 17.53493 | 19707 ft | 398 kts | 178° |
| 2026-04-30 19:09 | 43.72622 | 17.53930 | 19083 ft | 397 kts | 180° |
| 2026-04-30 19:09 | 43.69879 | 17.53977 | 18731 ft | 392 kts | 182° |
| 2026-04-30 19:09 | 43.67148 | 17.53957 | 18354 ft | 393 kts | 182° |
| 2026-04-30 19:10 | 43.61739 | 17.53890 | 17526 ft | 385 kts | 181° |
| 2026-04-30 19:10 | 43.56431 | 17.53892 | 16743 ft | 378 kts | 181° |
| 2026-04-30 19:11 | 43.53812 | 17.53910 | 16464 ft | 375 kts | 181° |
| 2026-04-30 19:11 | 43.48600 | 17.53945 | 15891 ft | 373 kts | 181° |
| 2026-04-30 19:11 | 43.46011 | 17.53958 | 15606 ft | 371 kts | 181° |
| 2026-04-30 19:12 | 43.43433 | 17.53975 | 15330 ft | 369 kts | 181° |
| 2026-04-30 19:12 | 43.40869 | 17.53999 | 15056 ft | 368 kts | 181° |
| 2026-04-30 19:12 | 43.38315 | 17.54022 | 14775 ft | 367 kts | 180° |
| 2026-04-30 19:13 | 43.33435 | 17.55588 | 14243 ft | 364 kts | 160° |
| 2026-04-30 19:13 | 43.28689 | 17.57987 | 13663 ft | 362 kts | 159° |
| 2026-04-30 19:13 | 43.26332 | 17.59187 | 13366 ft | 360 kts | 159° |
| 2026-04-30 19:14 | 43.23987 | 17.60379 | 13069 ft | 359 kts | 159° |
| 2026-04-30 19:14 | 43.21647 | 17.61569 | 12783 ft | 357 kts | 159° |
| 2026-04-30 19:14 | 43.19322 | 17.62749 | 12490 ft | 355 kts | 159° |
| 2026-04-30 19:14 | 43.17018 | 17.63916 | 12211 ft | 351 kts | 159° |
| 2026-04-30 19:15 | 43.14735 | 17.65068 | 11919 ft | 348 kts | 159° |
| 2026-04-30 19:15 | 43.10231 | 17.67333 | 11394 ft | 335 kts | 159° |
| 2026-04-30 19:15 | 43.08102 | 17.68401 | 11134 ft | 316 kts | 159° |
| 2026-04-30 19:16 | 43.06059 | 17.69424 | 10879 ft | 313 kts | 159° |
| 2026-04-30 19:16 | 43.04014 | 17.70451 | 10570 ft | 312 kts | 158° |
| 2026-04-30 19:16 | 42.99954 | 17.72494 | 10381 ft | 313 kts | 158° |
| 2026-04-30 19:17 | 42.97909 | 17.73522 | 10240 ft | 312 kts | 158° |
| 2026-04-30 19:17 | 42.93817 | 17.75581 | 9630 ft | 312 kts | 158° |
| 2026-04-30 19:17 | 42.91774 | 17.76606 | 9053 ft | 318 kts | 157° |
| 2026-04-30 19:18 | 42.88381 | 17.78301 | 8734 ft | 305 kts | 157° |
| 2026-04-30 19:18 | 42.85724 | 17.79622 | 8074 ft | 309 kts | 157° |
| 2026-04-30 19:18 | 42.83723 | 17.80616 | 7823 ft | 300 kts | 157° |
| 2026-04-30 19:19 | 42.81789 | 17.81574 | 7460 ft | 292 kts | 158° |
| 2026-04-30 19:19 | 42.79921 | 17.82503 | 7067 ft | 286 kts | 157° |
| 2026-04-30 19:19 | 42.76210 | 17.84348 | 6315 ft | 282 kts | 156° |
| 2026-04-30 19:20 | 42.74375 | 17.85260 | 6025 ft | 279 kts | 156° |
| 2026-04-30 19:20 | 42.72678 | 17.86435 | 5724 ft | 270 kts | 140° |
| 2026-04-30 19:20 | 42.70491 | 17.90340 | 5151 ft | 256 kts | 114° |
| 2026-04-30 19:21 | 42.69660 | 17.92488 | 5038 ft | 258 kts | 114° |
| 2026-04-30 19:21 | 42.68042 | 17.96617 | 4985 ft | 232 kts | 114° |
| 2026-04-30 19:22 | 42.66565 | 18.00386 | 4546 ft | 223 kts | 114° |
| 2026-04-30 19:22 | 42.64548 | 18.05510 | 3710 ft | 188 kts | 113° |
| 2026-04-30 19:23 | 42.62771 | 18.10028 | 2981 ft | 177 kts | 112° |
| 2026-04-30 19:24 | 42.61635 | 18.12907 | 2499 ft | 164 kts | 111° |
| 2026-04-30 19:24 | 42.61115 | 18.14222 | 2279 ft | 152 kts | 112° |
| 2026-04-30 19:24 | 42.60154 | 18.16659 | 1885 ft | 142 kts | 111° |
| 2026-04-30 19:25 | 42.58824 | 18.20026 | 1342 ft | 132 kts | 111° |
| 2026-04-30 19:26 | 42.57948 | 18.22254 | 1017 ft | 137 kts | 109° |
| 2026-04-30 19:26 | 42.57050 | 18.24517 | 634 ft | 134 kts | 108° |
| 2026-04-30 19:26 | 42.56617 | 18.25616 | 533 ft | 123 kts | 112° |
| 2026-04-30 19:27 | 42.56217 | 18.26634 | 527 ft | 14 kts | 137° |
| 2026-04-30 19:27 | 42.56137 | 18.26577 | 527 ft | 3 kts | 245° |
| 2026-04-30 19:28 | 42.56123 | 18.26538 | 526 ft | 6 kts | 243° |
| 2026-04-30 19:28 | 42.56124 | 18.26381 | 524 ft | 10 kts | 299° |
| 2026-04-30 19:29 | 42.56143 | 18.26279 | 523 ft | 6 kts | 225° |
| 2026-04-30 19:29 | 42.56114 | 18.26258 | 521 ft | 3 kts | 207° |
| 2026-04-30 19:30 | 42.56111 | 18.26256 | 521 ft | 0 kts | 207° |